SLCB/CBB METAR and TAF weather

Enter ICAO airport designator
Station Type Date Time Source
SLCB METAR 2020/01/18 19:00 UTC NOAA

SLCB 181900Z 28007KT 230V320 9999 SCT036 26/07 Q1025


Station Type Date Time Source
SLCB Decoded METAR 2020/01/18 19:00 UTC NOAA

Cochabamba, Bolivia (SLCB) 17-25S 066-11W 2570M
Jan 18, 2020 - 02:00 PM EST / 2020.01.18 1900 UTC
Wind: from the W (280 degrees) at 8 MPH (7 KT) (direction variable):0
Visibility: greater than 7 mile(s):0
Sky conditions: partly cloudy
Temperature: 78 F (26 C)
Dew Point: 44 F (7 C)
Relative Humidity: 29%
Pressure (altimeter): 30.27 in. Hg (1025 hPa)
ob: SLCB 181900Z 28007KT 230V320 9999 SCT036 26/07 Q1025
cycle: 19

Station Type Date Time Source
SLCB TAF 2020/01/18 18:55 UTC NOAA

TAF SLCB 181650Z 1818/1918 23010KT 9999 SCT036 TX28/1819Z TN13/1911Z
TEMPO 1819/1822 TS FEW040CB SCT070
BECMG 1902/1904 00000KT SCT030 BKN070

Example: see airport list